sensor_id;sensor_type;location;lat;lon;timestamp;P1;durP1;ratioP1;P2;durP2;ratioP2
9773;SDS011;4926;42.670;23.316;2023-02-10T00:01:00;52.55;;;26.13;;
9773;SDS011;4926;42.670;23.316;2023-02-10T00:03:29;49.97;;;26.80;;
9773;SDS011;4926;42.670;23.316;2023-02-10T00:05:59;49.95;;;25.55;;
9773;SDS011;4926;42.670;23.316;2023-02-10T00:08:29;42.20;;;23.98;;
9773;SDS011;4926;42.670;23.316;2023-02-10T00:10:56;44.70;;;24.75;;
9773;SDS011;4926;42.670;23.316;2023-02-10T00:13:24;47.15;;;26.27;;
9773;SDS011;4926;42.670;23.316;2023-02-10T00:15:51;45.97;;;25.48;;
9773;SDS011;4926;42.670;23.316;2023-02-10T00:18:18;46.67;;;26.02;;
9773;SDS011;4926;42.670;23.316;2023-02-10T00:20:48;47.70;;;26.35;;
9773;SDS011;4926;42.670;23.316;2023-02-10T00:23:15;47.33;;;23.52;;
9773;SDS011;4926;42.670;23.316;2023-02-10T00:25:42;44.42;;;23.73;;
9773;SDS011;4926;42.670;23.316;2023-02-10T00:28:08;45.20;;;23.38;;
9773;SDS011;4926;42.670;23.316;2023-02-10T00:30:36;43.72;;;23.52;;
9773;SDS011;4926;42.670;23.316;2023-02-10T00:33:05;39.95;;;23.33;;
9773;SDS011;4926;42.670;23.316;2023-02-10T00:35:32;41.10;;;22.13;;
9773;SDS011;4926;42.670;23.316;2023-02-10T00:38:00;46.75;;;23.77;;
9773;SDS011;4926;42.670;23.316;2023-02-10T00:40:27;39.15;;;21.83;;
9773;SDS011;4926;42.670;23.316;2023-02-10T00:42:59;39.10;;;20.55;;
9773;SDS011;4926;42.670;23.316;2023-02-10T00:45:29;43.95;;;22.02;;
9773;SDS011;4926;42.670;23.316;2023-02-10T00:47:55;38.35;;;18.98;;
9773;SDS011;4926;42.670;23.316;2023-02-10T00:50:22;34.55;;;19.10;;
9773;SDS011;4926;42.670;23.316;2023-02-10T00:52:49;33.65;;;18.17;;
9773;SDS011;4926;42.670;23.316;2023-02-10T00:55:17;36.42;;;19.25;;
9773;SDS011;4926;42.670;23.316;2023-02-10T00:57:43;38.78;;;21.77;;
9773;SDS011;4926;42.670;23.316;2023-02-10T01:00:11;42.67;;;21.83;;
9773;SDS011;4926;42.670;23.316;2023-02-10T01:02:38;39.30;;;21.05;;
9773;SDS011;4926;42.670;23.316;2023-02-10T01:05:05;34.10;;;19.25;;
9773;SDS011;4926;42.670;23.316;2023-02-10T01:07:32;33.85;;;18.50;;
9773;SDS011;4926;42.670;23.316;2023-02-10T01:09:58;34.92;;;17.20;;
9773;SDS011;4926;42.670;23.316;2023-02-10T01:12:31;33.35;;;18.10;;
9773;SDS011;4926;42.670;23.316;2023-02-10T01:14:57;40.22;;;17.58;;
9773;SDS011;4926;42.670;23.316;2023-02-10T01:17:24;32.30;;;16.42;;
9773;SDS011;4926;42.670;23.316;2023-02-10T01:19:51;30.48;;;17.67;;
9773;SDS011;4926;42.670;23.316;2023-02-10T01:22:17;31.13;;;15.77;;
9773;SDS011;4926;42.670;23.316;2023-02-10T01:24:47;30.42;;;16.02;;
9773;SDS011;4926;42.670;23.316;2023-02-10T01:27:13;29.92;;;16.58;;
9773;SDS011;4926;42.670;23.316;2023-02-10T01:29:42;33.50;;;17.73;;
9773;SDS011;4926;42.670;23.316;2023-02-10T01:32:08;35.45;;;17.17;;
9773;SDS011;4926;42.670;23.316;2023-02-10T01:34:35;35.33;;;18.05;;
9773;SDS011;4926;42.670;23.316;2023-02-10T01:37:02;32.63;;;16.65;;
9773;SDS011;4926;42.670;23.316;2023-02-10T01:39:34;30.73;;;16.52;;
9773;SDS011;4926;42.670;23.316;2023-02-10T01:42:01;34.17;;;16.83;;
9773;SDS011;4926;42.670;23.316;2023-02-10T01:47:33;28.02;;;14.55;;
9773;SDS011;4926;42.670;23.316;2023-02-10T01:50:00;32.55;;;16.60;;
9773;SDS011;4926;42.670;23.316;2023-02-10T01:52:27;36.15;;;16.50;;
9773;SDS011;4926;42.670;23.316;2023-02-10T01:54:59;30.13;;;16.35;;
9773;SDS011;4926;42.670;23.316;2023-02-10T01:57:29;35.35;;;16.30;;
9773;SDS011;4926;42.670;23.316;2023-02-10T01:59:56;29.75;;;16.58;;
9773;SDS011;4926;42.670;23.316;2023-02-10T02:02:28;31.15;;;15.48;;
9773;SDS011;4926;42.670;23.316;2023-02-10T02:04:59;32.40;;;16.33;;
9773;SDS011;4926;42.670;23.316;2023-02-10T02:07:28;21.63;;;12.50;;
9773;SDS011;4926;42.670;23.316;2023-02-10T02:09:57;24.25;;;13.10;;
9773;SDS011;4926;42.670;23.316;2023-02-10T02:12:27;24.90;;;12.98;;
9773;SDS011;4926;42.670;23.316;2023-02-10T02:15:03;25.05;;;13.80;;
9773;SDS011;4926;42.670;23.316;2023-02-10T02:17:40;27.00;;;16.40;;
9773;SDS011;4926;42.670;23.316;2023-02-10T02:20:18;31.88;;;15.50;;
9773;SDS011;4926;42.670;23.316;2023-02-10T02:23:10;27.27;;;15.82;;
9773;SDS011;4926;42.670;23.316;2023-02-10T02:25:47;27.58;;;15.32;;
9773;SDS011;4926;42.670;23.316;2023-02-10T02:28:40;24.70;;;13.77;;
9773;SDS011;4926;42.670;23.316;2023-02-10T02:31:38;24.00;;;13.63;;
9773;SDS011;4926;42.670;23.316;2023-02-10T02:34:37;21.92;;;12.77;;
9773;SDS011;4926;42.670;23.316;2023-02-10T02:37:08;24.02;;;14.18;;
9773;SDS011;4926;42.670;23.316;2023-02-10T02:39:40;35.03;;;17.00;;
9773;SDS011;4926;42.670;23.316;2023-02-10T02:42:14;33.50;;;19.15;;
9773;SDS011;4926;42.670;23.316;2023-02-10T02:44:47;40.63;;;21.40;;
9773;SDS011;4926;42.670;23.316;2023-02-10T02:47:20;44.15;;;22.48;;
9773;SDS011;4926;42.670;23.316;2023-02-10T02:49:59;42.60;;;22.30;;
9773;SDS011;4926;42.670;23.316;2023-02-10T02:52:47;40.40;;;20.13;;
9773;SDS011;4926;42.670;23.316;2023-02-10T02:55:25;38.58;;;20.77;;
9773;SDS011;4926;42.670;23.316;2023-02-10T02:58:04;42.45;;;21.30;;
9773;SDS011;4926;42.670;23.316;2023-02-10T03:00:37;35.95;;;20.58;;
9773;SDS011;4926;42.670;23.316;2023-02-10T03:03:09;38.55;;;20.33;;
9773;SDS011;4926;42.670;23.316;2023-02-10T03:05:36;34.65;;;19.58;;
9773;SDS011;4926;42.670;23.316;2023-02-10T03:08:07;35.92;;;18.45;;
9773;SDS011;4926;42.670;23.316;2023-02-10T03:10:34;33.97;;;18.35;;
9773;SDS011;4926;42.670;23.316;2023-02-10T03:13:03;33.13;;;17.23;;
9773;SDS011;4926;42.670;23.316;2023-02-10T03:15:30;28.98;;;15.45;;
9773;SDS011;4926;42.670;23.316;2023-02-10T03:17:56;32.22;;;17.10;;
9773;SDS011;4926;42.670;23.316;2023-02-10T03:20:27;31.85;;;16.20;;
9773;SDS011;4926;42.670;23.316;2023-02-10T03:22:53;32.42;;;15.27;;
9773;SDS011;4926;42.670;23.316;2023-02-10T03:25:27;30.50;;;15.93;;
9773;SDS011;4926;42.670;23.316;2023-02-10T03:27:54;29.83;;;16.02;;
9773;SDS011;4926;42.670;23.316;2023-02-10T03:30:21;28.60;;;15.80;;
9773;SDS011;4926;42.670;23.316;2023-02-10T03:32:49;27.98;;;15.43;;
9773;SDS011;4926;42.670;23.316;2023-02-10T03:35:16;30.83;;;16.42;;
9773;SDS011;4926;42.670;23.316;2023-02-10T03:37:46;29.48;;;15.27;;
9773;SDS011;4926;42.670;23.316;2023-02-10T03:40:13;36.30;;;16.42;;
9773;SDS011;4926;42.670;23.316;2023-02-10T03:42:39;29.85;;;16.15;;
9773;SDS011;4926;42.670;23.316;2023-02-10T03:45:09;29.88;;;15.55;;
9773;SDS011;4926;42.670;23.316;2023-02-10T03:47:37;31.98;;;15.50;;
9773;SDS011;4926;42.670;23.316;2023-02-10T03:50:07;29.20;;;15.88;;
9773;SDS011;4926;42.670;23.316;2023-02-10T03:52:34;29.17;;;16.30;;
9773;SDS011;4926;42.670;23.316;2023-02-10T03:55:02;33.70;;;17.13;;
9773;SDS011;4926;42.670;23.316;2023-02-10T03:57:32;28.20;;;15.88;;
9773;SDS011;4926;42.670;23.316;2023-02-10T03:59:59;30.50;;;16.95;;
9773;SDS011;4926;42.670;23.316;2023-02-10T04:02:26;31.42;;;16.13;;
9773;SDS011;4926;42.670;23.316;2023-02-10T04:04:55;30.10;;;16.27;;
9773;SDS011;4926;42.670;23.316;2023-02-10T04:07:24;26.85;;;15.25;;
9773;SDS011;4926;42.670;23.316;2023-02-10T04:09:50;28.85;;;16.48;;
9773;SDS011;4926;42.670;23.316;2023-02-10T04:12:19;33.08;;;17.05;;
9773;SDS011;4926;42.670;23.316;2023-02-10T04:14:45;33.05;;;18.08;;
9773;SDS011;4926;42.670;23.316;2023-02-10T04:17:12;35.15;;;16.75;;
9773;SDS011;4926;42.670;23.316;2023-02-10T04:19:39;30.23;;;15.73;;
9773;SDS011;4926;42.670;23.316;2023-02-10T04:22:05;28.10;;;16.17;;
9773;SDS011;4926;42.670;23.316;2023-02-10T04:24:32;30.48;;;16.52;;
9773;SDS011;4926;42.670;23.316;2023-02-10T04:26:59;35.00;;;18.10;;
9773;SDS011;4926;42.670;23.316;2023-02-10T04:29:27;31.10;;;16.13;;
9773;SDS011;4926;42.670;23.316;2023-02-10T04:31:54;29.15;;;15.80;;
9773;SDS011;4926;42.670;23.316;2023-02-10T04:34:20;30.30;;;15.77;;
9773;SDS011;4926;42.670;23.316;2023-02-10T04:36:49;34.60;;;17.13;;
9773;SDS011;4926;42.670;23.316;2023-02-10T04:39:18;37.28;;;18.42;;
9773;SDS011;4926;42.670;23.316;2023-02-10T04:41:45;39.28;;;18.77;;
9773;SDS011;4926;42.670;23.316;2023-02-10T04:44:11;43.58;;;22.00;;
9773;SDS011;4926;42.670;23.316;2023-02-10T04:46:39;37.25;;;18.88;;
9773;SDS011;4926;42.670;23.316;2023-02-10T04:49:06;44.47;;;19.48;;
9773;SDS011;4926;42.670;23.316;2023-02-10T04:51:33;27.88;;;16.40;;
9773;SDS011;4926;42.670;23.316;2023-02-10T04:53:59;33.45;;;16.80;;
9773;SDS011;4926;42.670;23.316;2023-02-10T04:56:26;28.33;;;15.85;;
9773;SDS011;4926;42.670;23.316;2023-02-10T04:58:53;25.08;;;15.02;;
9773;SDS011;4926;42.670;23.316;2023-02-10T05:01:20;27.50;;;16.02;;
9773;SDS011;4926;42.670;23.316;2023-02-10T05:03:48;36.53;;;19.67;;
9773;SDS011;4926;42.670;23.316;2023-02-10T05:06:14;35.38;;;19.77;;
9773;SDS011;4926;42.670;23.316;2023-02-10T05:08:41;30.60;;;17.50;;
9773;SDS011;4926;42.670;23.316;2023-02-10T05:11:14;32.05;;;16.90;;
9773;SDS011;4926;42.670;23.316;2023-02-10T05:13:42;35.58;;;17.77;;
9773;SDS011;4926;42.670;23.316;2023-02-10T05:16:09;32.67;;;17.35;;
9773;SDS011;4926;42.670;23.316;2023-02-10T05:18:37;35.72;;;18.95;;
9773;SDS011;4926;42.670;23.316;2023-02-10T05:21:08;36.58;;;18.70;;
9773;SDS011;4926;42.670;23.316;2023-02-10T05:23:36;37.45;;;17.60;;
9773;SDS011;4926;42.670;23.316;2023-02-10T05:26:06;31.05;;;17.10;;
9773;SDS011;4926;42.670;23.316;2023-02-10T05:28:33;32.97;;;17.40;;
9773;SDS011;4926;42.670;23.316;2023-02-10T05:30:59;27.92;;;15.82;;
9773;SDS011;4926;42.670;23.316;2023-02-10T05:33:26;29.08;;;16.70;;
9773;SDS011;4926;42.670;23.316;2023-02-10T05:35:53;30.73;;;16.55;;
9773;SDS011;4926;42.670;23.316;2023-02-10T05:38:21;34.90;;;17.30;;
9773;SDS011;4926;42.670;23.316;2023-02-10T05:40:48;31.95;;;17.67;;
9773;SDS011;4926;42.670;23.316;2023-02-10T05:43:18;34.03;;;17.30;;
9773;SDS011;4926;42.670;23.316;2023-02-10T05:45:47;33.78;;;17.55;;
9773;SDS011;4926;42.670;23.316;2023-02-10T05:48:14;30.67;;;17.25;;
9773;SDS011;4926;42.670;23.316;2023-02-10T05:50:41;32.72;;;18.13;;
9773;SDS011;4926;42.670;23.316;2023-02-10T05:53:07;31.08;;;16.08;;
9773;SDS011;4926;42.670;23.316;2023-02-10T05:55:36;28.70;;;15.07;;
9773;SDS011;4926;42.670;23.316;2023-02-10T05:58:02;23.00;;;14.23;;
9773;SDS011;4926;42.670;23.316;2023-02-10T06:00:29;27.60;;;13.98;;
9773;SDS011;4926;42.670;23.316;2023-02-10T06:02:56;27.45;;;14.52;;
9773;SDS011;4926;42.670;23.316;2023-02-10T06:05:23;24.30;;;14.70;;
9773;SDS011;4926;42.670;23.316;2023-02-10T06:07:50;29.90;;;15.13;;
9773;SDS011;4926;42.670;23.316;2023-02-10T06:10:20;28.63;;;15.45;;
9773;SDS011;4926;42.670;23.316;2023-02-10T06:12:49;25.08;;;13.88;;
9773;SDS011;4926;42.670;23.316;2023-02-10T06:15:19;30.60;;;15.43;;
9773;SDS011;4926;42.670;23.316;2023-02-10T06:17:45;25.60;;;14.75;;
9773;SDS011;4926;42.670;23.316;2023-02-10T06:20:12;25.08;;;13.57;;
9773;SDS011;4926;42.670;23.316;2023-02-10T06:22:39;24.20;;;14.25;;
9773;SDS011;4926;42.670;23.316;2023-02-10T06:25:08;28.15;;;14.63;;
9773;SDS011;4926;42.670;23.316;2023-02-10T06:27:35;25.80;;;15.65;;
9773;SDS011;4926;42.670;23.316;2023-02-10T06:30:03;29.30;;;16.00;;
9773;SDS011;4926;42.670;23.316;2023-02-10T06:32:30;32.80;;;17.42;;
9773;SDS011;4926;42.670;23.316;2023-02-10T06:34:59;31.55;;;17.30;;
9773;SDS011;4926;42.670;23.316;2023-02-10T06:37:26;29.27;;;16.83;;
9773;SDS011;4926;42.670;23.316;2023-02-10T06:39:53;33.92;;;17.35;;
9773;SDS011;4926;42.670;23.316;2023-02-10T06:42:20;32.47;;;17.98;;
9773;SDS011;4926;42.670;23.316;2023-02-10T06:44:49;38.83;;;20.02;;
9773;SDS011;4926;42.670;23.316;2023-02-10T06:47:23;34.22;;;20.42;;
9773;SDS011;4926;42.670;23.316;2023-02-10T06:49:49;36.03;;;19.50;;
9773;SDS011;4926;42.670;23.316;2023-02-10T06:52:16;32.97;;;18.50;;
9773;SDS011;4926;42.670;23.316;2023-02-10T06:54:43;34.00;;;17.00;;
9773;SDS011;4926;42.670;23.316;2023-02-10T06:57:10;32.28;;;18.20;;
9773;SDS011;4926;42.670;23.316;2023-02-10T06:59:37;28.10;;;17.88;;
9773;SDS011;4926;42.670;23.316;2023-02-10T07:02:03;33.10;;;19.50;;
9773;SDS011;4926;42.670;23.316;2023-02-10T07:04:34;30.95;;;18.73;;
9773;SDS011;4926;42.670;23.316;2023-02-10T07:07:00;38.90;;;20.50;;
9773;SDS011;4926;42.670;23.316;2023-02-10T07:09:27;34.65;;;20.38;;
9773;SDS011;4926;42.670;23.316;2023-02-10T07:11:54;36.13;;;20.65;;
9773;SDS011;4926;42.670;23.316;2023-02-10T07:14:21;42.33;;;21.90;;
9773;SDS011;4926;42.670;23.316;2023-02-10T07:16:47;38.65;;;21.42;;
9773;SDS011;4926;42.670;23.316;2023-02-10T07:19:14;38.75;;;22.25;;
9773;SDS011;4926;42.670;23.316;2023-02-10T07:21:42;38.13;;;21.55;;
9773;SDS011;4926;42.670;23.316;2023-02-10T07:24:09;38.22;;;20.88;;
9773;SDS011;4926;42.670;23.316;2023-02-10T07:26:36;40.28;;;22.27;;
9773;SDS011;4926;42.670;23.316;2023-02-10T07:29:04;38.85;;;21.55;;
9773;SDS011;4926;42.670;23.316;2023-02-10T07:31:31;35.80;;;21.08;;
9773;SDS011;4926;42.670;23.316;2023-02-10T07:34:00;37.95;;;21.52;;
9773;SDS011;4926;42.670;23.316;2023-02-10T07:36:27;42.00;;;22.92;;
9773;SDS011;4926;42.670;23.316;2023-02-10T07:39:01;38.00;;;21.55;;
9773;SDS011;4926;42.670;23.316;2023-02-10T07:41:28;34.30;;;21.92;;
9773;SDS011;4926;42.670;23.316;2023-02-10T07:43:54;41.08;;;21.13;;
9773;SDS011;4926;42.670;23.316;2023-02-10T07:46:21;34.83;;;21.73;;
9773;SDS011;4926;42.670;23.316;2023-02-10T07:48:48;37.53;;;20.75;;
9773;SDS011;4926;42.670;23.316;2023-02-10T07:51:18;33.83;;;21.23;;
9773;SDS011;4926;42.670;23.316;2023-02-10T07:53:44;34.65;;;20.42;;
9773;SDS011;4926;42.670;23.316;2023-02-10T07:56:13;37.13;;;19.92;;
9773;SDS011;4926;42.670;23.316;2023-02-10T07:58:45;30.15;;;18.67;;
9773;SDS011;4926;42.670;23.316;2023-02-10T08:01:11;30.27;;;19.05;;
9773;SDS011;4926;42.670;23.316;2023-02-10T08:03:45;32.25;;;18.95;;
9773;SDS011;4926;42.670;23.316;2023-02-10T08:06:11;31.02;;;19.23;;
9773;SDS011;4926;42.670;23.316;2023-02-10T08:08:38;29.92;;;18.92;;
9773;SDS011;4926;42.670;23.316;2023-02-10T08:11:05;30.52;;;18.70;;
9773;SDS011;4926;42.670;23.316;2023-02-10T08:13:33;34.75;;;19.63;;
9773;SDS011;4926;42.670;23.316;2023-02-10T08:16:02;30.27;;;19.25;;
9773;SDS011;4926;42.670;23.316;2023-02-10T08:18:36;30.48;;;18.77;;
9773;SDS011;4926;42.670;23.316;2023-02-10T08:21:08;28.77;;;18.42;;
9773;SDS011;4926;42.670;23.316;2023-02-10T08:23:35;31.45;;;20.40;;
9773;SDS011;4926;42.670;23.316;2023-02-10T08:26:02;34.72;;;19.90;;
9773;SDS011;4926;42.670;23.316;2023-02-10T08:28:35;35.03;;;20.67;;
9773;SDS011;4926;42.670;23.316;2023-02-10T08:31:06;27.63;;;19.40;;
9773;SDS011;4926;42.670;23.316;2023-02-10T08:33:35;30.35;;;18.23;;
9773;SDS011;4926;42.670;23.316;2023-02-10T08:36:03;34.33;;;21.45;;
9773;SDS011;4926;42.670;23.316;2023-02-10T08:38:31;34.55;;;20.48;;
9773;SDS011;4926;42.670;23.316;2023-02-10T08:40:57;30.75;;;20.17;;
9773;SDS011;4926;42.670;23.316;2023-02-10T08:43:25;32.42;;;20.88;;
9773;SDS011;4926;42.670;23.316;2023-02-10T08:45:56;36.08;;;21.33;;
9773;SDS011;4926;42.670;23.316;2023-02-10T08:48:26;32.33;;;20.58;;
9773;SDS011;4926;42.670;23.316;2023-02-10T08:50:53;39.35;;;21.63;;
9773;SDS011;4926;42.670;23.316;2023-02-10T08:53:20;34.72;;;20.95;;
9773;SDS011;4926;42.670;23.316;2023-02-10T08:55:57;41.80;;;21.77;;
9773;SDS011;4926;42.670;23.316;2023-02-10T08:58:24;28.67;;;20.80;;
9773;SDS011;4926;42.670;23.316;2023-02-10T09:00:53;37.70;;;22.85;;
9773;SDS011;4926;42.670;23.316;2023-02-10T09:03:21;33.47;;;21.13;;
9773;SDS011;4926;42.670;23.316;2023-02-10T09:05:48;31.13;;;21.52;;
9773;SDS011;4926;42.670;23.316;2023-02-10T09:08:15;36.13;;;20.75;;
9773;SDS011;4926;42.670;23.316;2023-02-10T09:10:45;31.23;;;21.83;;
9773;SDS011;4926;42.670;23.316;2023-02-10T09:13:15;31.63;;;21.48;;
9773;SDS011;4926;42.670;23.316;2023-02-10T09:15:42;30.75;;;20.67;;
9773;SDS011;4926;42.670;23.316;2023-02-10T09:18:09;34.05;;;21.60;;
9773;SDS011;4926;42.670;23.316;2023-02-10T09:20:40;36.63;;;21.60;;
9773;SDS011;4926;42.670;23.316;2023-02-10T09:23:06;33.45;;;21.65;;
9773;SDS011;4926;42.670;23.316;2023-02-10T09:25:33;38.47;;;21.15;;
9773;SDS011;4926;42.670;23.316;2023-02-10T09:28:00;38.10;;;22.70;;
9773;SDS011;4926;42.670;23.316;2023-02-10T09:30:27;35.20;;;21.20;;
9773;SDS011;4926;42.670;23.316;2023-02-10T09:32:53;32.67;;;21.63;;
9773;SDS011;4926;42.670;23.316;2023-02-10T09:35:20;32.72;;;21.38;;
9773;SDS011;4926;42.670;23.316;2023-02-10T09:37:48;32.53;;;21.25;;
9773;SDS011;4926;42.670;23.316;2023-02-10T09:40:16;35.25;;;20.90;;
9773;SDS011;4926;42.670;23.316;2023-02-10T09:42:51;37.85;;;21.27;;
9773;SDS011;4926;42.670;23.316;2023-02-10T09:45:31;37.03;;;21.83;;
9773;SDS011;4926;42.670;23.316;2023-02-10T09:48:17;37.90;;;20.90;;
9773;SDS011;4926;42.670;23.316;2023-02-10T09:50:59;35.63;;;20.63;;
9773;SDS011;4926;42.670;23.316;2023-02-10T09:53:36;36.70;;;21.17;;
9773;SDS011;4926;42.670;23.316;2023-02-10T09:56:04;32.30;;;21.27;;
9773;SDS011;4926;42.670;23.316;2023-02-10T09:58:39;38.78;;;19.90;;
9773;SDS011;4926;42.670;23.316;2023-02-10T10:01:10;33.80;;;20.38;;
9773;SDS011;4926;42.670;23.316;2023-02-10T10:03:43;35.50;;;21.23;;
9773;SDS011;4926;42.670;23.316;2023-02-10T10:06:17;40.15;;;21.85;;
9773;SDS011;4926;42.670;23.316;2023-02-10T10:08:59;37.25;;;21.50;;
9773;SDS011;4926;42.670;23.316;2023-02-10T10:11:41;36.92;;;21.40;;
9773;SDS011;4926;42.670;23.316;2023-02-10T10:14:14;33.83;;;22.20;;
9773;SDS011;4926;42.670;23.316;2023-02-10T10:16:46;38.80;;;21.95;;
9773;SDS011;4926;42.670;23.316;2023-02-10T10:19:28;35.13;;;20.58;;
9773;SDS011;4926;42.670;23.316;2023-02-10T10:22:10;38.92;;;21.88;;
9773;SDS011;4926;42.670;23.316;2023-02-10T10:24:57;34.55;;;21.23;;
9773;SDS011;4926;42.670;23.316;2023-02-10T10:27:40;34.90;;;21.02;;
9773;SDS011;4926;42.670;23.316;2023-02-10T10:30:20;33.53;;;20.27;;
9773;SDS011;4926;42.670;23.316;2023-02-10T10:32:58;38.90;;;19.92;;
9773;SDS011;4926;42.670;23.316;2023-02-10T10:35:34;31.25;;;19.80;;
9773;SDS011;4926;42.670;23.316;2023-02-10T10:38:08;29.08;;;19.23;;
9773;SDS011;4926;42.670;23.316;2023-02-10T10:40:40;34.50;;;17.75;;
9773;SDS011;4926;42.670;23.316;2023-02-10T10:43:12;31.55;;;17.73;;
9773;SDS011;4926;42.670;23.316;2023-02-10T10:45:44;25.38;;;17.05;;
9773;SDS011;4926;42.670;23.316;2023-02-10T10:48:15;24.65;;;15.32;;
9773;SDS011;4926;42.670;23.316;2023-02-10T10:50:46;27.30;;;16.73;;
9773;SDS011;4926;42.670;23.316;2023-02-10T10:53:14;30.50;;;18.33;;
9773;SDS011;4926;42.670;23.316;2023-02-10T10:55:46;26.35;;;17.17;;
9773;SDS011;4926;42.670;23.316;2023-02-10T10:58:21;30.92;;;17.58;;
9773;SDS011;4926;42.670;23.316;2023-02-10T11:00:52;31.50;;;17.80;;
9773;SDS011;4926;42.670;23.316;2023-02-10T11:03:21;30.90;;;17.58;;
9773;SDS011;4926;42.670;23.316;2023-02-10T11:05:56;32.42;;;18.60;;
9773;SDS011;4926;42.670;23.316;2023-02-10T11:08:26;29.08;;;18.80;;
9773;SDS011;4926;42.670;23.316;2023-02-10T11:10:59;30.63;;;18.95;;
9773;SDS011;4926;42.670;23.316;2023-02-10T11:13:28;33.17;;;19.70;;
9773;SDS011;4926;42.670;23.316;2023-02-10T11:15:58;29.23;;;18.05;;
9773;SDS011;4926;42.670;23.316;2023-02-10T11:18:27;29.40;;;18.25;;
9773;SDS011;4926;42.670;23.316;2023-02-10T11:20:55;32.35;;;17.52;;
9773;SDS011;4926;42.670;23.316;2023-02-10T11:23:24;34.33;;;19.10;;
9773;SDS011;4926;42.670;23.316;2023-02-10T11:25:56;29.15;;;17.70;;
9773;SDS011;4926;42.670;23.316;2023-02-10T11:28:27;32.90;;;18.40;;
9773;SDS011;4926;42.670;23.316;2023-02-10T11:30:55;34.10;;;18.48;;
9773;SDS011;4926;42.670;23.316;2023-02-10T11:33:26;34.17;;;19.30;;
9773;SDS011;4926;42.670;23.316;2023-02-10T11:35:56;33.30;;;19.73;;
9773;SDS011;4926;42.670;23.316;2023-02-10T11:38:26;36.83;;;18.85;;
9773;SDS011;4926;42.670;23.316;2023-02-10T11:40:58;29.55;;;17.73;;
9773;SDS011;4926;42.670;23.316;2023-02-10T11:43:28;35.05;;;17.33;;
9773;SDS011;4926;42.670;23.316;2023-02-10T11:45:57;31.27;;;17.27;;
9773;SDS011;4926;42.670;23.316;2023-02-10T11:48:25;28.88;;;17.50;;
9773;SDS011;4926;42.670;23.316;2023-02-10T11:51:06;26.33;;;16.55;;
9773;SDS011;4926;42.670;23.316;2023-02-10T11:53:43;28.73;;;17.75;;
9773;SDS011;4926;42.670;23.316;2023-02-10T11:56:16;27.25;;;16.48;;
9773;SDS011;4926;42.670;23.316;2023-02-10T11:59:11;35.92;;;18.50;;
9773;SDS011;4926;42.670;23.316;2023-02-10T12:01:51;35.15;;;18.65;;
9773;SDS011;4926;42.670;23.316;2023-02-10T12:07:23;32.47;;;18.00;;
9773;SDS011;4926;42.670;23.316;2023-02-10T12:09:58;31.00;;;17.27;;
9773;SDS011;4926;42.670;23.316;2023-02-10T12:12:36;33.83;;;17.60;;
9773;SDS011;4926;42.670;23.316;2023-02-10T12:15:13;27.30;;;16.98;;
9773;SDS011;4926;42.670;23.316;2023-02-10T12:17:52;31.38;;;16.70;;
9773;SDS011;4926;42.670;23.316;2023-02-10T12:20:36;25.85;;;17.60;;
9773;SDS011;4926;42.670;23.316;2023-02-10T12:23:19;25.70;;;17.50;;
9773;SDS011;4926;42.670;23.316;2023-02-10T12:26:01;28.23;;;17.48;;
9773;SDS011;4926;42.670;23.316;2023-02-10T12:28:38;32.78;;;17.83;;
9773;SDS011;4926;42.670;23.316;2023-02-10T12:31:24;32.00;;;19.02;;
9773;SDS011;4926;42.670;23.316;2023-02-10T12:36:59;26.30;;;16.55;;
9773;SDS011;4926;42.670;23.316;2023-02-10T12:39:35;30.13;;;17.63;;
9773;SDS011;4926;42.670;23.316;2023-02-10T12:42:09;30.40;;;17.98;;
9773;SDS011;4926;42.670;23.316;2023-02-10T12:44:52;29.10;;;16.40;;
9773;SDS011;4926;42.670;23.316;2023-02-10T12:47:29;31.42;;;18.42;;
9773;SDS011;4926;42.670;23.316;2023-02-10T12:52:53;31.75;;;16.95;;
9773;SDS011;4926;42.670;23.316;2023-02-10T12:55:25;30.75;;;16.95;;
9773;SDS011;4926;42.670;23.316;2023-02-10T12:58:02;28.88;;;16.55;;
9773;SDS011;4926;42.670;23.316;2023-02-10T13:00:37;29.45;;;17.88;;
9773;SDS011;4926;42.670;23.316;2023-02-10T13:03:11;28.27;;;17.42;;
9773;SDS011;4926;42.670;23.316;2023-02-10T13:05:43;32.47;;;16.55;;
9773;SDS011;4926;42.670;23.316;2023-02-10T13:08:13;28.67;;;17.83;;
9773;SDS011;4926;42.670;23.316;2023-02-10T13:10:49;27.92;;;16.40;;
9773;SDS011;4926;42.670;23.316;2023-02-10T13:13:20;30.23;;;17.48;;
9773;SDS011;4926;42.670;23.316;2023-02-10T13:15:52;28.25;;;18.20;;
9773;SDS011;4926;42.670;23.316;2023-02-10T13:18:30;30.15;;;18.02;;
9773;SDS011;4926;42.670;23.316;2023-02-10T13:21:00;26.95;;;17.27;;
9773;SDS011;4926;42.670;23.316;2023-02-10T13:23:36;28.85;;;18.33;;
9773;SDS011;4926;42.670;23.316;2023-02-10T13:26:13;32.13;;;17.25;;
9773;SDS011;4926;42.670;23.316;2023-02-10T13:28:54;29.42;;;17.77;;
9773;SDS011;4926;42.670;23.316;2023-02-10T13:31:40;26.92;;;16.50;;
9773;SDS011;4926;42.670;23.316;2023-02-10T13:34:18;28.25;;;17.83;;
9773;SDS011;4926;42.670;23.316;2023-02-10T13:36:51;32.22;;;18.45;;
9773;SDS011;4926;42.670;23.316;2023-02-10T13:39:23;30.05;;;18.45;;
9773;SDS011;4926;42.670;23.316;2023-02-10T13:42:03;26.42;;;17.20;;
9773;SDS011;4926;42.670;23.316;2023-02-10T13:44:33;32.50;;;19.95;;
9773;SDS011;4926;42.670;23.316;2023-02-10T13:47:13;30.40;;;18.73;;
9773;SDS011;4926;42.670;23.316;2023-02-10T13:49:49;29.42;;;18.55;;
9773;SDS011;4926;42.670;23.316;2023-02-10T13:52:19;37.28;;;19.38;;
9773;SDS011;4926;42.670;23.316;2023-02-10T13:54:56;29.35;;;18.17;;
9773;SDS011;4926;42.670;23.316;2023-02-10T13:57:26;27.58;;;17.27;;
9773;SDS011;4926;42.670;23.316;2023-02-10T14:00:12;34.67;;;17.20;;
9773;SDS011;4926;42.670;23.316;2023-02-10T14:02:42;28.65;;;17.65;;
9773;SDS011;4926;42.670;23.316;2023-02-10T14:08:11;31.27;;;20.15;;
9773;SDS011;4926;42.670;23.316;2023-02-10T14:10:39;34.50;;;21.27;;
9773;SDS011;4926;42.670;23.316;2023-02-10T14:13:20;40.17;;;20.58;;
9773;SDS011;4926;42.670;23.316;2023-02-10T14:15:55;35.75;;;21.23;;
9773;SDS011;4926;42.670;23.316;2023-02-10T14:18:28;38.47;;;21.35;;
9773;SDS011;4926;42.670;23.316;2023-02-10T14:20:57;40.05;;;20.80;;
9773;SDS011;4926;42.670;23.316;2023-02-10T14:23:26;40.08;;;21.90;;
9773;SDS011;4926;42.670;23.316;2023-02-10T14:25:55;32.40;;;21.75;;
9773;SDS011;4926;42.670;23.316;2023-02-10T14:28:25;40.88;;;22.75;;
9773;SDS011;4926;42.670;23.316;2023-02-10T14:30:55;44.10;;;21.98;;
9773;SDS011;4926;42.670;23.316;2023-02-10T14:33:28;39.40;;;23.05;;
9773;SDS011;4926;42.670;23.316;2023-02-10T14:35:56;38.53;;;23.08;;
9773;SDS011;4926;42.670;23.316;2023-02-10T14:38:25;35.05;;;22.27;;
9773;SDS011;4926;42.670;23.316;2023-02-10T14:40:53;35.60;;;21.55;;
9773;SDS011;4926;42.670;23.316;2023-02-10T14:43:23;40.53;;;23.25;;
9773;SDS011;4926;42.670;23.316;2023-02-10T14:45:52;48.13;;;23.13;;
9773;SDS011;4926;42.670;23.316;2023-02-10T14:48:20;38.45;;;23.33;;
9773;SDS011;4926;42.670;23.316;2023-02-10T14:53:48;37.97;;;21.55;;
9773;SDS011;4926;42.670;23.316;2023-02-10T14:56:22;33.33;;;20.38;;
9773;SDS011;4926;42.670;23.316;2023-02-10T14:58:49;33.40;;;20.70;;
9773;SDS011;4926;42.670;23.316;2023-02-10T15:01:18;34.47;;;20.90;;
9773;SDS011;4926;42.670;23.316;2023-02-10T15:03:50;32.20;;;19.90;;
9773;SDS011;4926;42.670;23.316;2023-02-10T15:06:24;38.58;;;22.48;;
9773;SDS011;4926;42.670;23.316;2023-02-10T15:08:54;34.38;;;20.27;;
9773;SDS011;4926;42.670;23.316;2023-02-10T15:11:25;33.00;;;20.13;;